createdAt,value
2022-10-28T00:02:03.629Z,15.27
2022-10-28T00:04:35.955Z,16.40
2022-10-28T00:07:07.803Z,19.15
2022-10-28T00:09:42.556Z,18.77
2022-10-28T00:12:14.355Z,16.90
2022-10-28T00:14:46.515Z,17.50
2022-10-28T00:17:18.425Z,16.48
2022-10-28T00:19:50.593Z,20.98
2022-10-28T00:22:22.633Z,15.00
2022-10-28T00:24:57.415Z,16.90
2022-10-28T00:27:30.072Z,14.80
2022-10-28T00:30:02.254Z,16.13
2022-10-28T00:32:34.914Z,15.38
2022-10-28T00:35:07.871Z,15.88
2022-10-28T00:37:39.663Z,17.35
2022-10-28T00:40:15.554Z,16.40
2022-10-28T00:42:47.442Z,20.52
2022-10-28T00:45:19.773Z,14.70
2022-10-28T00:47:56.451Z,13.27
2022-10-28T00:50:52.074Z,17.92
2022-10-28T00:53:26.974Z,14.02
2022-10-28T00:56:05.093Z,17.38
2022-10-28T00:58:38.221Z,15.85
2022-10-28T01:04:31.222Z,14.00
2022-10-28T01:07:04.544Z,14.88
2022-10-28T01:09:36.192Z,14.88
2022-10-28T01:12:18.643Z,18.98
2022-10-28T01:15:04.135Z,15.45
2022-10-28T01:17:51.473Z,17.10
2022-10-28T01:20:48.449Z,15.50
2022-10-28T01:23:29.688Z,17.60
2022-10-28T01:26:15.720Z,15.25
2022-10-28T01:29:28.442Z,15.60
2022-10-28T01:32:12.182Z,15.43
2022-10-28T01:34:56.243Z,15.05
2022-10-28T01:37:36.141Z,18.15
2022-10-28T01:40:15.236Z,14.90
2022-10-28T01:42:54.403Z,20.38
2022-10-28T01:45:31.932Z,16.48
2022-10-28T01:48:11.013Z,15.05
2022-10-28T01:50:49.870Z,20.58
2022-10-28T01:53:27.231Z,17.00
2022-10-28T01:56:05.683Z,15.85
2022-10-28T01:58:40.145Z,14.18
2022-10-28T02:01:13.917Z,17.13
2022-10-28T02:03:49.093Z,15.88
2022-10-28T02:06:23.974Z,17.17
2022-10-28T02:09:18.602Z,15.38
2022-10-28T02:12:07.414Z,17.20
2022-10-28T02:14:56.018Z,18.40
2022-10-28T02:17:39.601Z,19.40
2022-10-28T02:20:21.554Z,18.02
2022-10-28T02:22:57.927Z,18.98
2022-10-28T02:25:35.962Z,19.10
2022-10-28T02:31:07.176Z,19.98
2022-10-28T02:33:43.722Z,19.60
2022-10-28T02:36:21.633Z,19.77
2022-10-28T02:38:57.812Z,20.45
2022-10-28T02:41:34.898Z,22.40
2022-10-28T02:44:11.563Z,19.38
2022-10-28T02:46:47.065Z,21.90
2022-10-28T02:49:19.282Z,17.17
2022-10-28T02:51:58.283Z,19.15
2022-10-28T02:54:36.041Z,17.38
2022-10-28T02:57:11.984Z,20.55
2022-10-28T02:59:44.202Z,19.25
2022-10-28T03:02:15.910Z,18.05
2022-10-28T03:04:48.121Z,17.38
2022-10-28T03:07:23.305Z,18.35
2022-10-28T03:09:55.165Z,19.75
2022-10-28T03:12:27.052Z,20.88
2022-10-28T03:14:59.082Z,19.67
2022-10-28T03:17:30.960Z,19.00
2022-10-28T03:20:02.890Z,19.02
2022-10-28T03:22:37.404Z,20.02
2022-10-28T03:25:10.203Z,21.38
2022-10-28T03:27:44.403Z,17.42
2022-10-28T03:30:18.812Z,19.27
2022-10-28T03:32:54.419Z,17.73
2022-10-28T03:35:27.223Z,21.48
2022-10-28T03:38:01.884Z,21.02
2022-10-28T03:40:34.664Z,20.85
2022-10-28T03:43:06.763Z,23.27
2022-10-28T03:45:38.896Z,21.90
2022-10-28T03:48:10.972Z,21.45
2022-10-28T03:50:43.324Z,25.23
2022-10-28T03:53:18.123Z,22.13
2022-10-28T03:55:55.622Z,26.27
2022-10-28T03:58:28.273Z,24.35
2022-10-28T04:01:01.070Z,25.40
2022-10-28T04:03:33.702Z,23.95
2022-10-28T04:06:06.553Z,26.58
2022-10-28T04:08:41.955Z,22.73
2022-10-28T04:11:14.293Z,21.38
2022-10-28T04:13:46.120Z,19.25
2022-10-28T04:16:17.903Z,20.48
2022-10-28T04:18:49.329Z,19.65
2022-10-28T04:21:22.440Z,20.60
2022-10-28T04:23:59.822Z,20.33
2022-10-28T04:26:33.488Z,21.90
2022-10-28T04:29:04.873Z,25.90
2022-10-28T04:31:36.913Z,27.15
2022-10-28T04:34:10.496Z,27.17
2022-10-28T04:36:43.023Z,24.65
2022-10-28T04:39:17.773Z,21.95
2022-10-28T04:41:50.632Z,21.15
2022-10-28T04:44:22.562Z,24.83
2022-10-28T04:46:54.832Z,30.23
2022-10-28T04:49:26.904Z,24.60
2022-10-28T04:51:59.251Z,25.30
2022-10-28T04:54:34.093Z,24.83
2022-10-28T04:57:06.704Z,20.55
2022-10-28T04:59:38.684Z,22.27
2022-10-28T05:02:11.290Z,29.60
2022-10-28T05:04:56.838Z,18.02
2022-10-28T05:07:29.715Z,25.30
2022-10-28T05:10:04.435Z,29.58
2022-10-28T05:12:36.783Z,25.95
2022-10-28T05:15:10.452Z,28.63
2022-10-28T05:17:43.586Z,27.63
2022-10-28T05:20:17.216Z,25.42
2022-10-28T05:22:50.529Z,27.05
2022-10-28T05:25:26.083Z,26.27
2022-10-28T05:28:01.765Z,27.55
2022-10-28T05:30:33.893Z,28.00
2022-10-28T05:33:06.481Z,26.25
2022-10-28T05:35:38.813Z,25.60
2022-10-28T05:38:11.442Z,27.48
2022-10-28T05:40:46.365Z,24.40
2022-10-28T05:43:18.580Z,25.42
2022-10-28T05:45:56.084Z,26.65
2022-10-28T05:48:28.565Z,27.50
2022-10-28T05:51:00.624Z,27.70
2022-10-28T05:53:33.184Z,24.38
2022-10-28T05:56:08.462Z,28.83
2022-10-28T05:58:41.059Z,25.58
2022-10-28T06:01:13.309Z,29.50
2022-10-28T06:03:46.043Z,31.05
2022-10-28T06:06:18.205Z,23.75
2022-10-28T06:08:50.834Z,26.02
2022-10-28T06:11:24.166Z,25.80
2022-10-28T06:13:56.510Z,26.77
2022-10-28T06:16:28.792Z,24.20
2022-10-28T06:19:01.380Z,24.67
2022-10-28T06:21:33.037Z,21.70
2022-10-28T06:24:07.547Z,22.88
2022-10-28T06:26:44.734Z,21.02
2022-10-28T06:29:17.105Z,19.15
2022-10-28T06:31:50.155Z,20.23
2022-10-28T06:34:26.089Z,18.67
2022-10-28T06:37:00.572Z,17.92
2022-10-28T06:39:32.722Z,17.48
2022-10-28T06:42:09.260Z,19.67
2022-10-28T06:44:40.967Z,19.13
2022-10-28T06:47:16.432Z,19.98
2022-10-28T06:49:48.120Z,17.30
2022-10-28T06:52:19.659Z,19.95
2022-10-28T06:54:52.611Z,23.23
2022-10-28T06:57:29.282Z,19.10
2022-10-28T07:00:02.156Z,20.13
2022-10-28T07:02:34.646Z,18.88
2022-10-28T07:05:07.802Z,20.70
2022-10-28T07:07:43.184Z,19.02
2022-10-28T07:10:15.786Z,19.52
2022-10-28T07:12:50.932Z,17.92
2022-10-28T07:15:23.202Z,21.55
2022-10-28T07:17:58.465Z,18.45
2022-10-28T07:20:33.467Z,19.25
2022-10-28T07:23:06.308Z,18.23
2022-10-28T07:25:38.536Z,21.80
2022-10-28T07:28:12.969Z,23.33
2022-10-28T07:30:45.103Z,21.50
2022-10-28T07:33:17.194Z,19.42
2022-10-28T07:35:49.457Z,19.00
2022-10-28T07:38:21.659Z,22.13
2022-10-28T07:40:53.656Z,16.75
2022-10-28T07:43:28.377Z,18.63
2022-10-28T07:46:01.177Z,15.15
2022-10-28T07:48:33.035Z,15.00
2022-10-28T07:51:05.775Z,15.30
2022-10-28T07:53:38.580Z,18.95
2022-10-28T07:56:13.852Z,15.27
2022-10-28T07:58:48.809Z,18.45
2022-10-28T08:01:24.979Z,18.77
2022-10-28T08:03:57.082Z,18.15
2022-10-28T08:06:29.140Z,15.02
2022-10-28T08:09:01.933Z,17.88
2022-10-28T08:11:34.147Z,17.42
2022-10-28T08:14:08.582Z,17.63
2022-10-28T08:16:40.778Z,16.40
2022-10-28T08:19:14.115Z,15.77
2022-10-28T08:21:46.293Z,17.38
2022-10-28T08:24:18.353Z,16.20
2022-10-28T08:26:50.761Z,17.92
2022-10-28T08:29:29.855Z,13.88
2022-10-28T08:32:02.351Z,13.45
2022-10-28T08:34:35.097Z,17.05
2022-10-28T08:37:09.838Z,15.48
2022-10-28T08:39:41.771Z,13.52
2022-10-28T08:42:30.250Z,16.20
2022-10-28T08:45:22.090Z,13.45
2022-10-28T08:48:06.046Z,14.70
2022-10-28T08:50:45.555Z,16.58
2022-10-28T08:53:22.378Z,16.40
2022-10-28T08:55:58.315Z,15.30
2022-10-28T08:58:34.455Z,16.25
2022-10-28T09:01:12.709Z,17.50
2022-10-28T09:03:49.163Z,14.57
2022-10-28T09:06:21.054Z,14.70
2022-10-28T09:08:53.637Z,12.45
2022-10-28T09:11:56.814Z,10.75
2022-10-28T09:14:41.698Z,15.65
2022-10-28T09:17:21.796Z,15.00
2022-10-28T09:19:56.739Z,11.27
2022-10-28T09:22:35.828Z,15.60
2022-10-28T09:25:19.119Z,11.27
2022-10-28T09:28:04.554Z,15.07
2022-10-28T09:30:49.042Z,11.82
2022-10-28T09:33:40.276Z,17.60
2022-10-28T09:36:18.537Z,16.60
2022-10-28T09:38:51.157Z,13.38
2022-10-28T09:44:35.315Z,13.93
2022-10-28T09:47:18.219Z,14.02
2022-10-28T09:49:54.934Z,16.85
2022-10-28T09:52:33.080Z,16.90
2022-10-28T09:55:11.053Z,17.25
2022-10-28T09:57:44.391Z,10.50
2022-10-28T10:00:18.329Z,11.32
2022-10-28T10:02:50.993Z,13.77
2022-10-28T10:05:25.692Z,15.02
2022-10-28T10:08:00.997Z,14.88
2022-10-28T10:10:39.576Z,11.20
2022-10-28T10:13:12.832Z,12.95
2022-10-28T10:15:49.640Z,14.02
2022-10-28T10:18:26.260Z,34.80
2022-10-28T10:21:01.782Z,11.38
2022-10-28T10:23:36.049Z,15.73
2022-10-28T10:26:12.493Z,11.18
2022-10-28T10:28:49.317Z,14.13
2022-10-28T10:31:23.343Z,13.32
2022-10-28T10:33:57.494Z,9.30
2022-10-28T10:36:32.402Z,11.98
2022-10-28T10:39:06.026Z,14.95
2022-10-28T10:41:39.078Z,10.98
2022-10-28T10:44:34.590Z,12.00
2022-10-28T10:47:23.458Z,9.73
2022-10-28T10:49:56.739Z,9.30
2022-10-28T10:52:31.486Z,12.32
2022-10-28T10:55:08.002Z,11.80
2022-10-28T10:57:41.599Z,7.88
2022-10-28T11:00:20.665Z,13.43
2022-10-28T11:02:55.866Z,10.77
2022-10-28T11:05:35.635Z,12.43
2022-10-28T11:08:45.920Z,18.92
2022-10-28T11:11:24.808Z,11.50
2022-10-28T11:14:08.841Z,14.98
2022-10-28T11:16:54.687Z,15.98
2022-10-28T11:19:31.275Z,22.48
2022-10-28T11:22:17.351Z,14.40
2022-10-28T11:25:35.054Z,17.02
2022-10-28T11:28:30.763Z,10.40
2022-10-28T11:31:15.143Z,13.40
2022-10-28T11:33:55.224Z,12.45
2022-10-28T11:36:51.223Z,10.80
2022-10-28T11:39:54.132Z,17.67
2022-10-28T11:43:01.884Z,11.68
2022-10-28T11:46:10.484Z,13.18
2022-10-28T11:49:14.525Z,15.57
2022-10-28T13:01:01.413Z,13.98
2022-10-28T13:03:54.880Z,11.10
2022-10-28T13:06:43.826Z,11.93
2022-10-28T13:09:39.733Z,15.50
2022-10-28T13:12:36.193Z,10.82
2022-10-28T13:15:50.316Z,14.98
2022-10-28T13:18:58.591Z,11.05
2022-10-28T13:21:47.384Z,12.75
2022-10-28T13:24:29.173Z,13.95
2022-10-28T13:27:05.245Z,13.90
2022-10-28T13:29:38.341Z,13.27
2022-10-28T13:32:35.822Z,16.80
2022-10-28T13:35:27.501Z,14.60
2022-10-28T13:38:02.367Z,15.38
2022-10-28T13:41:04.242Z,14.48
2022-10-28T13:44:06.228Z,11.15
2022-10-28T13:47:08.329Z,10.32
2022-10-28T13:49:41.937Z,14.20
2022-10-28T13:52:25.348Z,10.95
2022-10-28T13:55:00.708Z,11.27
2022-10-28T13:57:38.790Z,11.20
2022-10-28T14:00:39.157Z,13.73
2022-10-28T14:03:22.917Z,13.63
2022-10-28T14:05:59.501Z,14.70
2022-10-28T14:08:41.393Z,19.27
2022-10-28T14:11:16.966Z,15.93
2022-10-28T14:13:53.805Z,17.33
2022-10-28T14:16:30.665Z,12.60
2022-10-28T14:19:07.167Z,11.90
2022-10-28T14:22:02.654Z,12.65
2022-10-28T14:24:39.948Z,16.05
2022-10-28T14:27:45.213Z,18.60
2022-10-28T14:30:25.903Z,15.52
2022-10-28T14:33:06.183Z,12.75
2022-10-28T14:35:44.202Z,16.25
2022-10-28T14:38:48.865Z,13.02
2022-10-28T14:41:52.620Z,19.52
2022-10-28T14:44:55.703Z,13.55
2022-10-28T14:47:53.998Z,11.65
2022-10-28T14:50:29.804Z,15.25
2022-10-28T14:53:07.104Z,14.07
2022-10-28T14:55:43.086Z,13.15
2022-10-28T14:58:27.764Z,11.85
2022-10-28T15:01:11.088Z,13.75
2022-10-28T15:03:43.138Z,14.65
2022-10-28T15:06:30.481Z,12.77
2022-10-28T15:09:09.066Z,14.93
2022-10-28T15:11:48.898Z,15.95
2022-10-28T15:14:34.779Z,12.35
2022-10-28T15:17:18.795Z,18.25
2022-10-28T15:19:52.840Z,18.83
2022-10-28T15:22:26.314Z,17.77
2022-10-28T15:25:02.896Z,12.90
2022-10-28T15:27:37.002Z,16.75
2022-10-28T15:30:19.273Z,10.63
2022-10-28T15:32:51.370Z,13.60
2022-10-28T15:35:42.776Z,17.08
2022-10-28T15:38:38.512Z,18.30
2022-10-28T15:41:49.678Z,19.77
2022-10-28T15:44:37.339Z,13.20
2022-10-28T15:47:22.488Z,14.00
2022-10-28T15:50:06.964Z,14.20
2022-10-28T15:52:41.227Z,21.42
2022-10-28T15:55:41.484Z,15.07
2022-10-28T15:58:39.230Z,14.25
2022-10-28T16:01:29.909Z,16.02
2022-10-28T16:04:04.521Z,16.88
2022-10-28T16:06:39.632Z,18.10
2022-10-28T16:09:21.452Z,18.90
2022-10-28T16:11:56.883Z,18.27
2022-10-28T16:14:47.893Z,22.27
2022-10-28T16:17:24.191Z,18.45
2022-10-28T16:20:02.797Z,19.27
2022-10-28T16:22:39.275Z,17.08
2022-10-28T16:25:17.195Z,15.85
2022-10-28T16:27:50.608Z,19.20
2022-10-28T16:33:15.411Z,20.23
2022-10-28T16:35:50.100Z,21.40
2022-10-28T16:38:23.176Z,17.33
2022-10-28T16:40:56.781Z,20.95
2022-10-28T16:43:30.917Z,16.42
2022-10-28T16:46:04.000Z,15.23
2022-10-28T16:48:43.436Z,19.38
2022-10-28T16:51:33.787Z,16.42
2022-10-28T16:54:37.200Z,20.08
2022-10-28T16:57:13.685Z,16.27
2022-10-28T16:59:46.061Z,19.60
2022-10-28T17:02:22.456Z,25.15
2022-10-28T17:04:59.798Z,23.75
2022-10-28T17:07:34.781Z,19.70
2022-10-28T17:10:07.939Z,21.15
2022-10-28T17:12:40.792Z,21.67
2022-10-28T17:15:14.101Z,19.75
2022-10-28T17:17:47.270Z,21.52
2022-10-28T17:20:19.613Z,20.58
2022-10-28T17:22:55.225Z,25.25
2022-10-28T17:25:27.736Z,23.05
2022-10-28T17:28:00.382Z,22.95
2022-10-28T17:30:33.703Z,24.00
2022-10-28T17:33:06.466Z,21.67
2022-10-28T17:35:46.406Z,20.75
2022-10-28T17:38:21.604Z,24.15
2022-10-28T17:40:57.773Z,19.63
2022-10-28T17:43:34.467Z,25.85
2022-10-28T17:46:07.882Z,23.90
2022-10-28T17:48:42.810Z,25.42
2022-10-28T17:51:14.522Z,23.20
2022-10-28T17:53:56.952Z,28.42
2022-10-28T17:56:28.658Z,26.38
2022-10-28T17:59:01.895Z,27.38
2022-10-28T18:01:36.329Z,22.25
2022-10-28T18:04:09.116Z,22.17
2022-10-28T18:06:50.138Z,27.95
2022-10-28T18:09:25.919Z,28.13
2022-10-28T18:12:01.410Z,22.73
2022-10-28T18:14:33.795Z,23.45
2022-10-28T18:17:10.539Z,27.35
2022-10-28T18:19:42.772Z,29.70
2022-10-28T18:22:17.967Z,32.90
2022-10-28T18:24:54.563Z,31.92
2022-10-28T18:27:27.106Z,25.42
2022-10-28T18:29:59.383Z,25.98
2022-10-28T18:32:31.251Z,32.35
2022-10-28T18:35:03.340Z,30.00
2022-10-28T18:37:50.672Z,26.02
2022-10-28T18:41:14.713Z,22.92
2022-10-28T18:43:56.233Z,23.92
2022-10-28T18:46:30.164Z,30.05
2022-10-28T18:49:02.364Z,28.50
2022-10-28T18:51:35.127Z,29.83
2022-10-28T18:54:07.725Z,23.58
2022-10-28T18:56:55.182Z,22.65
2022-10-28T18:59:29.442Z,23.75
2022-10-28T19:02:01.963Z,24.60
2022-10-28T19:04:33.994Z,25.17
2022-10-28T19:07:07.201Z,26.83
2022-10-28T19:09:39.869Z,21.17
2022-10-28T19:12:14.921Z,25.10
2022-10-28T19:14:46.604Z,18.08
2022-10-28T19:17:19.413Z,27.67
2022-10-28T19:19:51.996Z,28.25
2022-10-28T19:22:24.040Z,24.40
2022-10-28T19:24:55.853Z,24.58
2022-10-28T19:27:31.140Z,23.60
2022-10-28T19:30:06.534Z,27.88
2022-10-28T19:32:42.261Z,23.80
2022-10-28T19:35:14.034Z,26.13
2022-10-28T19:37:46.282Z,25.27
2022-10-28T19:40:18.162Z,26.80
2022-10-28T19:42:57.256Z,22.70
2022-10-28T19:45:32.482Z,23.13
2022-10-28T19:48:05.485Z,22.10
2022-10-28T19:50:37.647Z,21.77
2022-10-28T19:53:12.288Z,25.77
2022-10-28T19:55:44.585Z,26.85
2022-10-28T19:58:19.968Z,23.33
2022-10-28T20:00:53.708Z,25.92
2022-10-28T20:03:26.187Z,21.85
2022-10-28T20:06:06.118Z,28.85
2022-10-28T20:08:40.322Z,21.83
2022-10-28T20:11:13.701Z,21.95
2022-10-28T20:13:50.160Z,20.77
2022-10-28T20:16:22.970Z,22.02
2022-10-28T20:18:58.089Z,22.40
2022-10-28T20:21:38.809Z,19.48
2022-10-28T20:24:11.831Z,21.63
2022-10-28T20:26:44.069Z,18.98
2022-10-28T20:29:19.372Z,17.77
2022-10-28T20:31:52.669Z,21.55
2022-10-28T20:34:26.166Z,19.80
2022-10-28T20:36:58.207Z,21.00
2022-10-28T20:39:30.717Z,17.83
2022-10-28T20:42:02.731Z,17.30
2022-10-28T20:44:38.211Z,18.58
2022-10-28T20:47:10.147Z,23.73
2022-10-28T20:49:42.983Z,22.45
2022-10-28T20:52:17.007Z,20.33
2022-10-28T20:54:49.712Z,24.52
2022-10-28T20:57:21.932Z,22.00
2022-10-28T20:59:57.833Z,22.17
2022-10-28T21:02:29.654Z,20.77
2022-10-28T21:05:02.133Z,22.55
2022-10-28T21:07:35.502Z,23.38
2022-10-28T21:10:08.220Z,23.00
2022-10-28T21:12:40.112Z,16.50
2022-10-28T21:15:15.742Z,18.13
2022-10-28T21:17:47.789Z,26.27
2022-10-28T21:20:23.270Z,20.80
2022-10-28T21:22:55.496Z,21.05
2022-10-28T21:25:28.174Z,19.30
2022-10-28T21:28:03.970Z,23.33
2022-10-28T21:30:38.850Z,18.27
2022-10-28T21:33:12.316Z,20.52
2022-10-28T21:35:45.411Z,20.10
2022-10-28T21:38:18.350Z,24.52
2022-10-28T21:40:50.730Z,17.33
2022-10-28T21:43:22.728Z,19.40
2022-10-28T21:45:58.595Z,20.60
2022-10-28T21:48:32.453Z,19.95
2022-10-28T21:51:11.635Z,17.35
2022-10-28T21:54:21.714Z,19.58
2022-10-28T21:56:55.351Z,19.00
2022-10-28T21:59:27.814Z,19.30
2022-10-28T22:02:03.534Z,22.70
2022-10-28T22:04:36.076Z,19.67
2022-10-28T22:07:08.343Z,24.25
2022-10-28T22:09:40.501Z,18.48
2022-10-28T22:12:13.035Z,17.30
2022-10-28T22:14:45.023Z,19.90
2022-10-28T22:17:20.086Z,16.55
2022-10-28T22:19:52.658Z,23.67
2022-10-28T22:22:26.707Z,20.27
2022-10-28T22:24:58.505Z,22.27
2022-10-28T22:27:30.672Z,20.23
2022-10-28T22:30:02.574Z,22.63
2022-10-28T22:32:37.590Z,20.40
2022-10-28T22:35:11.092Z,19.63
2022-10-28T22:37:43.746Z,26.50
2022-10-28T22:40:15.948Z,20.50
2022-10-28T22:42:48.016Z,18.90
2022-10-28T22:45:20.071Z,22.35
2022-10-28T22:47:55.884Z,23.08
2022-10-28T22:50:28.143Z,22.27
2022-10-28T22:53:00.540Z,22.27
2022-10-28T22:55:32.749Z,17.98
2022-10-28T22:58:05.257Z,19.08
2022-10-28T23:00:39.756Z,19.00
2022-10-28T23:03:17.428Z,19.73
2022-10-28T23:05:49.802Z,23.02
2022-10-28T23:08:22.383Z,21.33
2022-10-28T23:10:54.712Z,24.73
2022-10-28T23:13:27.345Z,15.98
2022-10-28T23:15:59.600Z,21.38
2022-10-28T23:18:35.003Z,28.98
2022-10-28T23:21:09.057Z,18.02
2022-10-28T23:23:42.089Z,24.08
2022-10-28T23:26:44.093Z,24.17
2022-10-28T23:29:17.421Z,18.75
2022-10-28T23:31:49.230Z,16.15
2022-10-28T23:34:24.402Z,18.30
2022-10-28T23:36:56.471Z,21.30
2022-10-28T23:39:32.991Z,20.15
2022-10-28T23:42:05.450Z,19.25
2022-10-28T23:44:37.325Z,25.85
2022-10-28T23:47:09.077Z,21.00
2022-10-28T23:49:43.858Z,15.50
2022-10-28T23:52:16.056Z,17.40
2022-10-28T23:54:48.077Z,21.40
2022-10-28T23:57:20.091Z,21.92
2022-10-28T23:59:53.919Z,20.50
